sensor_id;sensor_type;location;lat;lon;timestamp;P1;durP1;ratioP1;P2;durP2;ratioP2
66087;SDS011;52872;52.994;6.940;2022-12-07T00:01:51;8.93;;;3.13;;
66087;SDS011;52872;52.994;6.940;2022-12-07T00:04:18;8.32;;;3.05;;
66087;SDS011;52872;52.994;6.940;2022-12-07T00:06:46;8.75;;;3.33;;
66087;SDS011;52872;52.994;6.940;2022-12-07T00:09:16;6.97;;;2.88;;
66087;SDS011;52872;52.994;6.940;2022-12-07T00:11:44;6.95;;;2.88;;
66087;SDS011;52872;52.994;6.940;2022-12-07T00:14:14;6.47;;;2.75;;
66087;SDS011;52872;52.994;6.940;2022-12-07T00:16:43;4.55;;;2.35;;
66087;SDS011;52872;52.994;6.940;2022-12-07T00:19:11;8.35;;;2.83;;
66087;SDS011;52872;52.994;6.940;2022-12-07T00:21:39;7.15;;;2.28;;
66087;SDS011;52872;52.994;6.940;2022-12-07T00:24:06;6.40;;;2.80;;
66087;SDS011;52872;52.994;6.940;2022-12-07T00:26:37;12.75;;;2.67;;
66087;SDS011;52872;52.994;6.940;2022-12-07T00:29:07;6.75;;;2.60;;
66087;SDS011;52872;52.994;6.940;2022-12-07T00:31:39;6.87;;;1.97;;
66087;SDS011;52872;52.994;6.940;2022-12-07T00:34:13;5.65;;;2.03;;
66087;SDS011;52872;52.994;6.940;2022-12-07T00:36:42;4.10;;;1.95;;
66087;SDS011;52872;52.994;6.940;2022-12-07T00:39:09;8.35;;;2.10;;
66087;SDS011;52872;52.994;6.940;2022-12-07T00:41:36;5.05;;;2.00;;
66087;SDS011;52872;52.994;6.940;2022-12-07T00:44:03;5.22;;;1.80;;
66087;SDS011;52872;52.994;6.940;2022-12-07T00:46:30;7.93;;;2.00;;
66087;SDS011;52872;52.994;6.940;2022-12-07T00:48:57;4.88;;;1.63;;
66087;SDS011;52872;52.994;6.940;2022-12-07T00:51:24;5.80;;;1.88;;
66087;SDS011;52872;52.994;6.940;2022-12-07T00:53:52;6.22;;;2.13;;
66087;SDS011;52872;52.994;6.940;2022-12-07T00:56:23;9.73;;;1.70;;
66087;SDS011;52872;52.994;6.940;2022-12-07T00:58:53;4.78;;;1.67;;
66087;SDS011;52872;52.994;6.940;2022-12-07T01:01:22;4.80;;;1.45;;
66087;SDS011;52872;52.994;6.940;2022-12-07T01:03:51;4.10;;;1.40;;
66087;SDS011;52872;52.994;6.940;2022-12-07T01:06:18;5.95;;;1.58;;
66087;SDS011;52872;52.994;6.940;2022-12-07T01:08:47;8.05;;;1.50;;
66087;SDS011;52872;52.994;6.940;2022-12-07T01:11:15;9.15;;;1.63;;
66087;SDS011;52872;52.994;6.940;2022-12-07T01:13:44;4.82;;;1.25;;
66087;SDS011;52872;52.994;6.940;2022-12-07T01:16:12;7.88;;;1.30;;
66087;SDS011;52872;52.994;6.940;2022-12-07T01:18:40;4.97;;;1.40;;
66087;SDS011;52872;52.994;6.940;2022-12-07T01:21:13;3.13;;;1.10;;
66087;SDS011;52872;52.994;6.940;2022-12-07T01:23:42;4.75;;;1.10;;
66087;SDS011;52872;52.994;6.940;2022-12-07T01:26:11;5.10;;;0.95;;
66087;SDS011;52872;52.994;6.940;2022-12-07T01:28:40;2.13;;;1.10;;
66087;SDS011;52872;52.994;6.940;2022-12-07T01:31:09;6.40;;;1.25;;
66087;SDS011;52872;52.994;6.940;2022-12-07T01:33:38;4.53;;;1.35;;
66087;SDS011;52872;52.994;6.940;2022-12-07T01:36:24;7.45;;;1.70;;
66087;SDS011;52872;52.994;6.940;2022-12-07T01:38:54;4.05;;;1.25;;
66087;SDS011;52872;52.994;6.940;2022-12-07T01:41:23;4.53;;;1.23;;
66087;SDS011;52872;52.994;6.940;2022-12-07T01:46:59;2.88;;;1.20;;
66087;SDS011;52872;52.994;6.940;2022-12-07T01:49:37;5.60;;;1.50;;
66087;SDS011;52872;52.994;6.940;2022-12-07T01:54:55;2.33;;;1.45;;
66087;SDS011;52872;52.994;6.940;2022-12-07T01:57:26;7.00;;;1.00;;
66087;SDS011;52872;52.994;6.940;2022-12-07T01:59:53;5.07;;;1.52;;
66087;SDS011;52872;52.994;6.940;2022-12-07T02:02:23;6.28;;;1.85;;
66087;SDS011;52872;52.994;6.940;2022-12-07T02:04:58;2.70;;;0.90;;
66087;SDS011;52872;52.994;6.940;2022-12-07T02:07:26;5.55;;;1.52;;
66087;SDS011;52872;52.994;6.940;2022-12-07T02:09:55;6.45;;;1.77;;
66087;SDS011;52872;52.994;6.940;2022-12-07T02:12:21;12.73;;;1.30;;
66087;SDS011;52872;52.994;6.940;2022-12-07T02:14:50;3.95;;;1.50;;
66087;SDS011;52872;52.994;6.940;2022-12-07T02:17:25;4.53;;;1.30;;
66087;SDS011;52872;52.994;6.940;2022-12-07T02:28:33;3.58;;;1.20;;
66087;SDS011;52872;52.994;6.940;2022-12-07T02:31:09;10.10;;;1.33;;
66087;SDS011;52872;52.994;6.940;2022-12-07T02:33:44;6.03;;;1.20;;
66087;SDS011;52872;52.994;6.940;2022-12-07T02:36:19;2.10;;;0.90;;
66087;SDS011;52872;52.994;6.940;2022-12-07T02:38:58;4.50;;;1.30;;
66087;SDS011;52872;52.994;6.940;2022-12-07T02:41:33;6.65;;;1.30;;
66087;SDS011;52872;52.994;6.940;2022-12-07T02:44:07;3.67;;;1.13;;
66087;SDS011;52872;52.994;6.940;2022-12-07T02:46:40;5.32;;;1.15;;
66087;SDS011;52872;52.994;6.940;2022-12-07T02:49:14;5.10;;;1.10;;
66087;SDS011;52872;52.994;6.940;2022-12-07T02:51:42;4.13;;;1.25;;
66087;SDS011;52872;52.994;6.940;2022-12-07T02:54:12;4.90;;;0.73;;
66087;SDS011;52872;52.994;6.940;2022-12-07T03:07:33;6.13;;;1.10;;
66087;SDS011;52872;52.994;6.940;2022-12-07T03:10:11;5.60;;;1.10;;
66087;SDS011;52872;52.994;6.940;2022-12-07T03:18:26;3.92;;;0.93;;
66087;SDS011;52872;52.994;6.940;2022-12-07T03:20:57;6.03;;;0.93;;
66087;SDS011;52872;52.994;6.940;2022-12-07T03:23:28;7.43;;;1.10;;
66087;SDS011;52872;52.994;6.940;2022-12-07T03:26:00;9.18;;;1.27;;
66087;SDS011;52872;52.994;6.940;2022-12-07T03:28:31;5.97;;;1.20;;
66087;SDS011;52872;52.994;6.940;2022-12-07T03:31:22;5.70;;;1.58;;
66087;SDS011;52872;52.994;6.940;2022-12-07T03:34:05;6.85;;;1.08;;
66087;SDS011;52872;52.994;6.940;2022-12-07T03:37:00;5.28;;;0.80;;
66087;SDS011;52872;52.994;6.940;2022-12-07T03:42:22;4.97;;;1.88;;
66087;SDS011;52872;52.994;6.940;2022-12-07T03:44:50;7.60;;;1.05;;
66087;SDS011;52872;52.994;6.940;2022-12-07T03:47:21;4.93;;;1.00;;
66087;SDS011;52872;52.994;6.940;2022-12-07T03:52:36;3.58;;;1.00;;
66087;SDS011;52872;52.994;6.940;2022-12-07T03:57:55;5.32;;;1.13;;
66087;SDS011;52872;52.994;6.940;2022-12-07T04:00:26;4.22;;;0.82;;
66087;SDS011;52872;52.994;6.940;2022-12-07T04:02:52;4.63;;;1.00;;
66087;SDS011;52872;52.994;6.940;2022-12-07T04:05:19;4.07;;;0.80;;
66087;SDS011;52872;52.994;6.940;2022-12-07T04:07:47;4.55;;;0.70;;
66087;SDS011;52872;52.994;6.940;2022-12-07T04:10:14;3.35;;;1.10;;
66087;SDS011;52872;52.994;6.940;2022-12-07T04:12:41;6.47;;;1.40;;
66087;SDS011;52872;52.994;6.940;2022-12-07T04:15:08;4.93;;;0.82;;
66087;SDS011;52872;52.994;6.940;2022-12-07T04:17:36;3.42;;;0.85;;
66087;SDS011;52872;52.994;6.940;2022-12-07T04:20:04;7.07;;;1.05;;
66087;SDS011;52872;52.994;6.940;2022-12-07T04:22:32;3.72;;;0.90;;
66087;SDS011;52872;52.994;6.940;2022-12-07T04:24:59;4.00;;;0.82;;
66087;SDS011;52872;52.994;6.940;2022-12-07T04:27:26;5.07;;;0.90;;
66087;SDS011;52872;52.994;6.940;2022-12-07T04:29:53;5.15;;;1.10;;
66087;SDS011;52872;52.994;6.940;2022-12-07T04:32:21;8.07;;;0.95;;
66087;SDS011;52872;52.994;6.940;2022-12-07T04:34:49;2.22;;;0.80;;
66087;SDS011;52872;52.994;6.940;2022-12-07T04:37:20;6.43;;;1.05;;
66087;SDS011;52872;52.994;6.940;2022-12-07T04:39:47;5.75;;;1.10;;
66087;SDS011;52872;52.994;6.940;2022-12-07T04:42:14;4.55;;;1.20;;
66087;SDS011;52872;52.994;6.940;2022-12-07T04:44:41;1.83;;;0.90;;
66087;SDS011;52872;52.994;6.940;2022-12-07T04:47:08;5.18;;;1.05;;
66087;SDS011;52872;52.994;6.940;2022-12-07T04:49:35;4.15;;;1.10;;
66087;SDS011;52872;52.994;6.940;2022-12-07T04:52:02;4.60;;;1.00;;
66087;SDS011;52872;52.994;6.940;2022-12-07T04:54:29;6.30;;;1.20;;
66087;SDS011;52872;52.994;6.940;2022-12-07T04:56:56;5.43;;;1.25;;
66087;SDS011;52872;52.994;6.940;2022-12-07T04:59:23;3.17;;;0.90;;
66087;SDS011;52872;52.994;6.940;2022-12-07T05:01:50;4.78;;;1.15;;
66087;SDS011;52872;52.994;6.940;2022-12-07T05:04:17;5.65;;;0.95;;
66087;SDS011;52872;52.994;6.940;2022-12-07T05:06:44;5.90;;;0.90;;
66087;SDS011;52872;52.994;6.940;2022-12-07T05:09:11;6.88;;;1.02;;
66087;SDS011;52872;52.994;6.940;2022-12-07T05:11:38;6.97;;;1.00;;
66087;SDS011;52872;52.994;6.940;2022-12-07T05:16:37;4.20;;;0.73;;
66087;SDS011;52872;52.994;6.940;2022-12-07T05:19:06;8.90;;;1.08;;
66087;SDS011;52872;52.994;6.940;2022-12-07T05:21:33;4.68;;;0.77;;
66087;SDS011;52872;52.994;6.940;2022-12-07T05:24:00;4.72;;;0.93;;
66087;SDS011;52872;52.994;6.940;2022-12-07T05:26:28;7.10;;;1.20;;
66087;SDS011;52872;52.994;6.940;2022-12-07T05:28:55;4.50;;;0.95;;
66087;SDS011;52872;52.994;6.940;2022-12-07T05:31:23;4.20;;;0.82;;
66087;SDS011;52872;52.994;6.940;2022-12-07T05:33:51;7.47;;;0.85;;
66087;SDS011;52872;52.994;6.940;2022-12-07T05:36:18;6.07;;;1.42;;
66087;SDS011;52872;52.994;6.940;2022-12-07T05:38:46;7.13;;;1.10;;
66087;SDS011;52872;52.994;6.940;2022-12-07T05:41:14;5.57;;;1.60;;
66087;SDS011;52872;52.994;6.940;2022-12-07T05:44:02;6.55;;;1.27;;
66087;SDS011;52872;52.994;6.940;2022-12-07T05:46:29;7.80;;;1.33;;
66087;SDS011;52872;52.994;6.940;2022-12-07T05:48:56;10.48;;;1.05;;
66087;SDS011;52872;52.994;6.940;2022-12-07T05:51:23;5.43;;;1.25;;
66087;SDS011;52872;52.994;6.940;2022-12-07T05:53:50;7.07;;;0.85;;
66087;SDS011;52872;52.994;6.940;2022-12-07T05:56:16;3.83;;;1.10;;
66087;SDS011;52872;52.994;6.940;2022-12-07T05:58:44;2.42;;;1.05;;
66087;SDS011;52872;52.994;6.940;2022-12-07T06:01:29;6.13;;;0.95;;
66087;SDS011;52872;52.994;6.940;2022-12-07T06:03:56;6.18;;;1.10;;
66087;SDS011;52872;52.994;6.940;2022-12-07T06:06:23;4.78;;;1.08;;
66087;SDS011;52872;52.994;6.940;2022-12-07T06:08:50;3.50;;;0.60;;
66087;SDS011;52872;52.994;6.940;2022-12-07T06:11:17;7.90;;;1.35;;
66087;SDS011;52872;52.994;6.940;2022-12-07T06:14:02;9.30;;;1.35;;
66087;SDS011;52872;52.994;6.940;2022-12-07T06:16:29;5.25;;;1.17;;
66087;SDS011;52872;52.994;6.940;2022-12-07T06:18:56;6.75;;;1.23;;
66087;SDS011;52872;52.994;6.940;2022-12-07T06:21:23;8.85;;;1.42;;
66087;SDS011;52872;52.994;6.940;2022-12-07T06:23:52;6.68;;;1.50;;
66087;SDS011;52872;52.994;6.940;2022-12-07T06:26:19;9.02;;;1.20;;
66087;SDS011;52872;52.994;6.940;2022-12-07T06:28:46;7.35;;;1.08;;
66087;SDS011;52872;52.994;6.940;2022-12-07T06:31:13;6.80;;;1.00;;
66087;SDS011;52872;52.994;6.940;2022-12-07T06:33:41;5.47;;;0.98;;
66087;SDS011;52872;52.994;6.940;2022-12-07T06:36:08;5.03;;;2.25;;
66087;SDS011;52872;52.994;6.940;2022-12-07T06:38:36;8.60;;;1.30;;
66087;SDS011;52872;52.994;6.940;2022-12-07T06:41:03;7.05;;;1.10;;
66087;SDS011;52872;52.994;6.940;2022-12-07T06:43:30;5.82;;;1.33;;
66087;SDS011;52872;52.994;6.940;2022-12-07T06:45:57;7.65;;;1.52;;
66087;SDS011;52872;52.994;6.940;2022-12-07T06:48:24;4.90;;;1.30;;
66087;SDS011;52872;52.994;6.940;2022-12-07T06:50:51;6.43;;;1.23;;
66087;SDS011;52872;52.994;6.940;2022-12-07T06:53:20;8.75;;;1.30;;
66087;SDS011;52872;52.994;6.940;2022-12-07T06:55:48;5.15;;;1.08;;
66087;SDS011;52872;52.994;6.940;2022-12-07T06:58:15;4.95;;;1.10;;
66087;SDS011;52872;52.994;6.940;2022-12-07T07:00:43;4.82;;;1.75;;
66087;SDS011;52872;52.994;6.940;2022-12-07T07:03:11;9.32;;;1.90;;
66087;SDS011;52872;52.994;6.940;2022-12-07T07:05:38;8.05;;;1.60;;
66087;SDS011;52872;52.994;6.940;2022-12-07T07:08:05;5.30;;;1.50;;
66087;SDS011;52872;52.994;6.940;2022-12-07T07:10:48;3.22;;;1.42;;
66087;SDS011;52872;52.994;6.940;2022-12-07T07:13:16;6.05;;;1.98;;
66087;SDS011;52872;52.994;6.940;2022-12-07T07:15:43;7.68;;;2.05;;
66087;SDS011;52872;52.994;6.940;2022-12-07T07:18:09;7.30;;;1.40;;
66087;SDS011;52872;52.994;6.940;2022-12-07T07:20:37;9.55;;;1.40;;
66087;SDS011;52872;52.994;6.940;2022-12-07T07:23:04;5.88;;;1.08;;
66087;SDS011;52872;52.994;6.940;2022-12-07T07:25:31;8.13;;;1.83;;
66087;SDS011;52872;52.994;6.940;2022-12-07T07:27:59;4.82;;;1.38;;
66087;SDS011;52872;52.994;6.940;2022-12-07T07:30:26;5.35;;;1.33;;
66087;SDS011;52872;52.994;6.940;2022-12-07T07:32:57;6.63;;;1.30;;
66087;SDS011;52872;52.994;6.940;2022-12-07T07:35:25;5.93;;;1.88;;
66087;SDS011;52872;52.994;6.940;2022-12-07T07:37:53;7.25;;;1.55;;
66087;SDS011;52872;52.994;6.940;2022-12-07T07:40:21;6.65;;;1.30;;
66087;SDS011;52872;52.994;6.940;2022-12-07T07:42:48;3.35;;;1.63;;
66087;SDS011;52872;52.994;6.940;2022-12-07T07:45:17;4.93;;;2.00;;
66087;SDS011;52872;52.994;6.940;2022-12-07T07:47:44;9.05;;;1.50;;
66087;SDS011;52872;52.994;6.940;2022-12-07T07:50:11;6.53;;;1.17;;
66087;SDS011;52872;52.994;6.940;2022-12-07T07:52:38;5.35;;;1.95;;
66087;SDS011;52872;52.994;6.940;2022-12-07T07:55:06;3.97;;;1.05;;
66087;SDS011;52872;52.994;6.940;2022-12-07T07:57:35;5.38;;;1.08;;
66087;SDS011;52872;52.994;6.940;2022-12-07T08:00:03;2.38;;;1.10;;
66087;SDS011;52872;52.994;6.940;2022-12-07T08:02:37;3.17;;;0.95;;
66087;SDS011;52872;52.994;6.940;2022-12-07T08:05:05;2.50;;;0.80;;
66087;SDS011;52872;52.994;6.940;2022-12-07T08:07:33;4.20;;;1.02;;
66087;SDS011;52872;52.994;6.940;2022-12-07T08:10:00;3.97;;;1.10;;
66087;SDS011;52872;52.994;6.940;2022-12-07T08:12:27;6.75;;;1.20;;
66087;SDS011;52872;52.994;6.940;2022-12-07T08:14:54;4.88;;;1.10;;
66087;SDS011;52872;52.994;6.940;2022-12-07T08:17:21;5.40;;;1.20;;
66087;SDS011;52872;52.994;6.940;2022-12-07T08:19:48;1.70;;;1.05;;
66087;SDS011;52872;52.994;6.940;2022-12-07T08:22:15;4.93;;;1.20;;
66087;SDS011;52872;52.994;6.940;2022-12-07T08:24:42;4.18;;;1.50;;
66087;SDS011;52872;52.994;6.940;2022-12-07T08:27:09;4.00;;;1.40;;
66087;SDS011;52872;52.994;6.940;2022-12-07T08:29:36;5.50;;;1.40;;
66087;SDS011;52872;52.994;6.940;2022-12-07T08:32:03;8.63;;;1.65;;
66087;SDS011;52872;52.994;6.940;2022-12-07T08:34:34;2.90;;;0.82;;
66087;SDS011;52872;52.994;6.940;2022-12-07T08:37:02;6.03;;;1.02;;
66087;SDS011;52872;52.994;6.940;2022-12-07T08:39:29;4.55;;;1.20;;
66087;SDS011;52872;52.994;6.940;2022-12-07T08:41:57;2.70;;;1.10;;
66087;SDS011;52872;52.994;6.940;2022-12-07T08:44:24;5.55;;;1.10;;
66087;SDS011;52872;52.994;6.940;2022-12-07T08:46:52;4.93;;;1.58;;
66087;SDS011;52872;52.994;6.940;2022-12-07T08:49:26;8.32;;;1.60;;
66087;SDS011;52872;52.994;6.940;2022-12-07T08:51:58;7.00;;;1.52;;
66087;SDS011;52872;52.994;6.940;2022-12-07T08:54:24;5.57;;;1.13;;
66087;SDS011;52872;52.994;6.940;2022-12-07T08:56:52;5.22;;;1.17;;
66087;SDS011;52872;52.994;6.940;2022-12-07T08:59:24;2.58;;;0.95;;
66087;SDS011;52872;52.994;6.940;2022-12-07T09:01:53;5.32;;;1.30;;
66087;SDS011;52872;52.994;6.940;2022-12-07T09:04:19;3.60;;;1.60;;
66087;SDS011;52872;52.994;6.940;2022-12-07T09:06:47;5.80;;;1.17;;
66087;SDS011;52872;52.994;6.940;2022-12-07T09:09:14;2.78;;;1.00;;
66087;SDS011;52872;52.994;6.940;2022-12-07T09:11:41;5.30;;;1.15;;
66087;SDS011;52872;52.994;6.940;2022-12-07T09:14:08;7.47;;;1.25;;
66087;SDS011;52872;52.994;6.940;2022-12-07T09:16:35;5.05;;;0.98;;
66087;SDS011;52872;52.994;6.940;2022-12-07T09:19:02;6.28;;;1.45;;
66087;SDS011;52872;52.994;6.940;2022-12-07T09:21:29;6.38;;;1.88;;
66087;SDS011;52872;52.994;6.940;2022-12-07T09:23:56;6.63;;;1.30;;
66087;SDS011;52872;52.994;6.940;2022-12-07T09:26:23;6.80;;;1.35;;
66087;SDS011;52872;52.994;6.940;2022-12-07T09:28:50;8.45;;;1.35;;
66087;SDS011;52872;52.994;6.940;2022-12-07T09:31:17;8.98;;;1.23;;
66087;SDS011;52872;52.994;6.940;2022-12-07T09:33:53;3.60;;;1.10;;
66087;SDS011;52872;52.994;6.940;2022-12-07T09:36:27;6.15;;;1.25;;
66087;SDS011;52872;52.994;6.940;2022-12-07T09:38:55;6.28;;;1.42;;
66087;SDS011;52872;52.994;6.940;2022-12-07T09:41:22;4.03;;;1.27;;
66087;SDS011;52872;52.994;6.940;2022-12-07T09:43:51;7.55;;;1.52;;
66087;SDS011;52872;52.994;6.940;2022-12-07T09:46:20;6.40;;;1.48;;
66087;SDS011;52872;52.994;6.940;2022-12-07T09:48:48;3.95;;;1.58;;
66087;SDS011;52872;52.994;6.940;2022-12-07T09:51:20;3.97;;;1.30;;
66087;SDS011;52872;52.994;6.940;2022-12-07T09:53:51;5.25;;;1.50;;
66087;SDS011;52872;52.994;6.940;2022-12-07T09:56:20;4.53;;;1.10;;
66087;SDS011;52872;52.994;6.940;2022-12-07T09:58:48;8.02;;;1.63;;
66087;SDS011;52872;52.994;6.940;2022-12-07T10:01:19;6.30;;;1.65;;
66087;SDS011;52872;52.994;6.940;2022-12-07T10:03:51;3.20;;;1.10;;
66087;SDS011;52872;52.994;6.940;2022-12-07T10:06:27;6.22;;;1.50;;
66087;SDS011;52872;52.994;6.940;2022-12-07T10:08:54;5.43;;;1.45;;
66087;SDS011;52872;52.994;6.940;2022-12-07T10:11:21;4.97;;;1.60;;
66087;SDS011;52872;52.994;6.940;2022-12-07T10:13:49;8.48;;;1.63;;
66087;SDS011;52872;52.994;6.940;2022-12-07T10:19:24;6.43;;;1.42;;
66087;SDS011;52872;52.994;6.940;2022-12-07T10:24:42;6.50;;;1.15;;
66087;SDS011;52872;52.994;6.940;2022-12-07T10:27:22;8.60;;;2.22;;
66087;SDS011;52872;52.994;6.940;2022-12-07T10:32:28;3.25;;;1.60;;
66087;SDS011;52872;52.994;6.940;2022-12-07T10:38:14;6.03;;;1.30;;
66087;SDS011;52872;52.994;6.940;2022-12-07T10:40:42;5.63;;;1.20;;
66087;SDS011;52872;52.994;6.940;2022-12-07T10:46:03;5.85;;;1.42;;
66087;SDS011;52872;52.994;6.940;2022-12-07T10:54:28;2.70;;;1.13;;
66087;SDS011;52872;52.994;6.940;2022-12-07T11:02:45;3.92;;;1.60;;
66087;SDS011;52872;52.994;6.940;2022-12-07T11:10:59;4.07;;;1.23;;
66087;SDS011;52872;52.994;6.940;2022-12-07T11:13:56;6.35;;;1.13;;
66087;SDS011;52872;52.994;6.940;2022-12-07T11:19:28;4.93;;;1.20;;
66087;SDS011;52872;52.994;6.940;2022-12-07T11:21:58;4.82;;;1.08;;
66087;SDS011;52872;52.994;6.940;2022-12-07T11:27:30;4.07;;;1.23;;
66087;SDS011;52872;52.994;6.940;2022-12-07T11:35:56;5.43;;;1.10;;
66087;SDS011;52872;52.994;6.940;2022-12-07T11:38:42;4.32;;;1.38;;
66087;SDS011;52872;52.994;6.940;2022-12-07T11:41:13;6.28;;;1.33;;
66087;SDS011;52872;52.994;6.940;2022-12-07T11:44:06;2.78;;;1.02;;
66087;SDS011;52872;52.994;6.940;2022-12-07T11:46:54;4.43;;;1.27;;
66087;SDS011;52872;52.994;6.940;2022-12-07T11:49:29;4.53;;;1.20;;
66087;SDS011;52872;52.994;6.940;2022-12-07T11:52:17;5.25;;;1.30;;
66087;SDS011;52872;52.994;6.940;2022-12-07T11:55:18;5.75;;;1.90;;
66087;SDS011;52872;52.994;6.940;2022-12-07T11:57:56;6.53;;;1.85;;
66087;SDS011;52872;52.994;6.940;2022-12-07T12:00:29;4.43;;;1.27;;
66087;SDS011;52872;52.994;6.940;2022-12-07T12:03:10;4.75;;;1.80;;
66087;SDS011;52872;52.994;6.940;2022-12-07T12:05:41;7.30;;;1.90;;
66087;SDS011;52872;52.994;6.940;2022-12-07T12:11:13;3.70;;;1.35;;
66087;SDS011;52872;52.994;6.940;2022-12-07T12:16:58;4.63;;;1.13;;
66087;SDS011;52872;52.994;6.940;2022-12-07T12:19:41;5.30;;;2.47;;
66087;SDS011;52872;52.994;6.940;2022-12-07T12:24:44;3.70;;;1.60;;
66087;SDS011;52872;52.994;6.940;2022-12-07T12:27:18;1.55;;;1.20;;
66087;SDS011;52872;52.994;6.940;2022-12-07T12:29:54;4.38;;;1.70;;
66087;SDS011;52872;52.994;6.940;2022-12-07T12:32:30;3.08;;;1.70;;
66087;SDS011;52872;52.994;6.940;2022-12-07T12:37:53;1.85;;;1.20;;
66087;SDS011;52872;52.994;6.940;2022-12-07T12:42:49;2.88;;;1.23;;
66087;SDS011;52872;52.994;6.940;2022-12-07T12:45:24;3.20;;;1.38;;
66087;SDS011;52872;52.994;6.940;2022-12-07T12:47:57;4.07;;;1.50;;
66087;SDS011;52872;52.994;6.940;2022-12-07T12:50:29;5.75;;;1.45;;
66087;SDS011;52872;52.994;6.940;2022-12-07T12:55:43;2.80;;;0.80;;
66087;SDS011;52872;52.994;6.940;2022-12-07T13:00:46;5.57;;;1.20;;
66087;SDS011;52872;52.994;6.940;2022-12-07T13:03:21;2.70;;;1.08;;
66087;SDS011;52872;52.994;6.940;2022-12-07T13:08:51;4.57;;;1.08;;
66087;SDS011;52872;52.994;6.940;2022-12-07T13:11:41;2.58;;;1.17;;
66087;SDS011;52872;52.994;6.940;2022-12-07T13:19:59;7.63;;;1.38;;
66087;SDS011;52872;52.994;6.940;2022-12-07T13:27:40;7.18;;;1.60;;
66087;SDS011;52872;52.994;6.940;2022-12-07T13:30:14;4.63;;;1.60;;
66087;SDS011;52872;52.994;6.940;2022-12-07T13:35:31;7.03;;;1.50;;
66087;SDS011;52872;52.994;6.940;2022-12-07T13:38:15;2.78;;;1.60;;
66087;SDS011;52872;52.994;6.940;2022-12-07T13:46:43;4.43;;;1.63;;
66087;SDS011;52872;52.994;6.940;2022-12-07T13:49:31;6.55;;;1.70;;
66087;SDS011;52872;52.994;6.940;2022-12-07T13:57:16;1.80;;;1.15;;
66087;SDS011;52872;52.994;6.940;2022-12-07T13:59:44;4.78;;;1.10;;
66087;SDS011;52872;52.994;6.940;2022-12-07T14:02:22;1.85;;;1.00;;
66087;SDS011;52872;52.994;6.940;2022-12-07T14:04:50;3.83;;;0.98;;
66087;SDS011;52872;52.994;6.940;2022-12-07T14:07:22;1.65;;;0.80;;
66087;SDS011;52872;52.994;6.940;2022-12-07T14:09:58;0.95;;;0.60;;
66087;SDS011;52872;52.994;6.940;2022-12-07T14:12:45;3.30;;;0.85;;
66087;SDS011;52872;52.994;6.940;2022-12-07T14:15:19;1.77;;;1.02;;
66087;SDS011;52872;52.994;6.940;2022-12-07T14:17:49;1.27;;;0.90;;
66087;SDS011;52872;52.994;6.940;2022-12-07T14:23:03;2.60;;;0.90;;
66087;SDS011;52872;52.994;6.940;2022-12-07T14:28:32;4.63;;;2.13;;
66087;SDS011;52872;52.994;6.940;2022-12-07T14:31:00;1.40;;;0.85;;
66087;SDS011;52872;52.994;6.940;2022-12-07T14:33:28;3.17;;;1.90;;
66087;SDS011;52872;52.994;6.940;2022-12-07T14:35:55;1.73;;;1.00;;
66087;SDS011;52872;52.994;6.940;2022-12-07T14:38:24;2.65;;;0.85;;
66087;SDS011;52872;52.994;6.940;2022-12-07T14:40:53;2.45;;;0.90;;
66087;SDS011;52872;52.994;6.940;2022-12-07T14:43:21;3.22;;;0.95;;
66087;SDS011;52872;52.994;6.940;2022-12-07T14:45:47;2.28;;;1.10;;
66087;SDS011;52872;52.994;6.940;2022-12-07T14:48:15;3.47;;;1.40;;
66087;SDS011;52872;52.994;6.940;2022-12-07T14:51:02;2.55;;;1.70;;
66087;SDS011;52872;52.994;6.940;2022-12-07T14:53:50;3.28;;;1.65;;
66087;SDS011;52872;52.994;6.940;2022-12-07T14:56:22;1.67;;;1.05;;
66087;SDS011;52872;52.994;6.940;2022-12-07T14:58:48;1.40;;;1.00;;
66087;SDS011;52872;52.994;6.940;2022-12-07T15:01:15;2.83;;;1.10;;
66087;SDS011;52872;52.994;6.940;2022-12-07T15:03:42;4.78;;;1.60;;
66087;SDS011;52872;52.994;6.940;2022-12-07T15:06:10;2.60;;;0.88;;
66087;SDS011;52872;52.994;6.940;2022-12-07T15:08:41;2.92;;;0.68;;
66087;SDS011;52872;52.994;6.940;2022-12-07T15:11:14;3.90;;;1.25;;
66087;SDS011;52872;52.994;6.940;2022-12-07T15:13:42;1.95;;;1.15;;
66087;SDS011;52872;52.994;6.940;2022-12-07T15:16:28;4.95;;;0.98;;
66087;SDS011;52872;52.994;6.940;2022-12-07T15:19:09;1.17;;;0.80;;
66087;SDS011;52872;52.994;6.940;2022-12-07T15:21:57;3.80;;;0.90;;
66087;SDS011;52872;52.994;6.940;2022-12-07T15:24:26;3.38;;;0.70;;
66087;SDS011;52872;52.994;6.940;2022-12-07T15:26:53;2.08;;;1.02;;
66087;SDS011;52872;52.994;6.940;2022-12-07T15:29:20;3.10;;;2.08;;
66087;SDS011;52872;52.994;6.940;2022-12-07T15:31:50;5.22;;;2.10;;
66087;SDS011;52872;52.994;6.940;2022-12-07T15:34:25;7.00;;;2.90;;
66087;SDS011;52872;52.994;6.940;2022-12-07T15:37:01;2.78;;;1.50;;
66087;SDS011;52872;52.994;6.940;2022-12-07T15:39:28;0.98;;;0.50;;
66087;SDS011;52872;52.994;6.940;2022-12-07T15:41:55;3.03;;;1.00;;
66087;SDS011;52872;52.994;6.940;2022-12-07T15:44:22;2.35;;;0.80;;
66087;SDS011;52872;52.994;6.940;2022-12-07T15:47:07;5.72;;;1.95;;
66087;SDS011;52872;52.994;6.940;2022-12-07T15:49:34;3.88;;;1.13;;
66087;SDS011;52872;52.994;6.940;2022-12-07T15:52:01;3.00;;;1.00;;
66087;SDS011;52872;52.994;6.940;2022-12-07T15:54:28;5.22;;;2.28;;
66087;SDS011;52872;52.994;6.940;2022-12-07T15:56:56;5.30;;;3.22;;
66087;SDS011;52872;52.994;6.940;2022-12-07T15:59:23;6.30;;;2.95;;
66087;SDS011;52872;52.994;6.940;2022-12-07T16:01:51;6.75;;;2.67;;
66087;SDS011;52872;52.994;6.940;2022-12-07T16:04:19;6.03;;;2.20;;
66087;SDS011;52872;52.994;6.940;2022-12-07T16:06:46;8.63;;;4.30;;
66087;SDS011;52872;52.994;6.940;2022-12-07T16:09:13;6.53;;;2.40;;
66087;SDS011;52872;52.994;6.940;2022-12-07T16:11:41;4.85;;;2.17;;
66087;SDS011;52872;52.994;6.940;2022-12-07T16:14:08;8.07;;;3.35;;
66087;SDS011;52872;52.994;6.940;2022-12-07T16:16:35;7.63;;;2.90;;
66087;SDS011;52872;52.994;6.940;2022-12-07T16:19:02;4.57;;;2.03;;
66087;SDS011;52872;52.994;6.940;2022-12-07T16:21:29;6.00;;;3.33;;
66087;SDS011;52872;52.994;6.940;2022-12-07T16:23:57;4.10;;;1.73;;
66087;SDS011;52872;52.994;6.940;2022-12-07T16:26:25;6.20;;;2.47;;
66087;SDS011;52872;52.994;6.940;2022-12-07T16:28:52;5.05;;;2.10;;
66087;SDS011;52872;52.994;6.940;2022-12-07T16:31:22;2.47;;;2.10;;
66087;SDS011;52872;52.994;6.940;2022-12-07T16:33:52;5.63;;;1.67;;
66087;SDS011;52872;52.994;6.940;2022-12-07T16:36:20;1.48;;;1.20;;
66087;SDS011;52872;52.994;6.940;2022-12-07T16:39:08;3.47;;;1.52;;
66087;SDS011;52872;52.994;6.940;2022-12-07T16:41:35;3.58;;;2.20;;
66087;SDS011;52872;52.994;6.940;2022-12-07T16:44:05;4.80;;;2.22;;
66087;SDS011;52872;52.994;6.940;2022-12-07T16:46:34;3.85;;;1.95;;
66087;SDS011;52872;52.994;6.940;2022-12-07T16:49:02;2.80;;;1.77;;
66087;SDS011;52872;52.994;6.940;2022-12-07T16:51:30;2.55;;;1.55;;
66087;SDS011;52872;52.994;6.940;2022-12-07T16:53:57;6.45;;;1.60;;
66087;SDS011;52872;52.994;6.940;2022-12-07T16:56:25;5.43;;;1.80;;
66087;SDS011;52872;52.994;6.940;2022-12-07T16:58:53;2.33;;;1.27;;
66087;SDS011;52872;52.994;6.940;2022-12-07T17:01:21;5.03;;;1.40;;
66087;SDS011;52872;52.994;6.940;2022-12-07T17:03:49;3.63;;;1.42;;
66087;SDS011;52872;52.994;6.940;2022-12-07T17:06:18;3.33;;;1.17;;
66087;SDS011;52872;52.994;6.940;2022-12-07T17:08:46;5.20;;;2.08;;
66087;SDS011;52872;52.994;6.940;2022-12-07T17:11:21;4.55;;;3.03;;
66087;SDS011;52872;52.994;6.940;2022-12-07T17:13:53;7.43;;;2.17;;
66087;SDS011;52872;52.994;6.940;2022-12-07T17:16:39;6.28;;;2.05;;
66087;SDS011;52872;52.994;6.940;2022-12-07T17:19:07;3.25;;;2.20;;
66087;SDS011;52872;52.994;6.940;2022-12-07T17:21:35;4.50;;;2.00;;
66087;SDS011;52872;52.994;6.940;2022-12-07T17:24:03;7.18;;;1.50;;
66087;SDS011;52872;52.994;6.940;2022-12-07T17:26:31;2.17;;;1.40;;